Cedar Falls, IA

1:46 AM CDT on August 31, 2015 (GMT -0500)
Laurel Circle | | Change Station
CLOSE
Current Station
Personal Weather Station
Location: Cedar Falls, IA
Elevation: 942 ft
Nearby Weather Stations
Active Advisory: Flood Warning

Elev 942 ft 42.52 °N, 92.46 °W | Updated 4 seconds ago

Clear
Clear
63.0 °F
Feels Like 63.0 °F
N
0.0
Wind Variable Wind from ESE
Gusts 0.0 mph

Today
High -- | Low -- °F
--% Chance of Precip.
Yesterday
High -- | Low -- °F
Precip. -- in
6:33 AM 7:46 PM
Waning Gibbous, 97% visible
Pressure 30.00 in
Visibility 1.5 miles
Clouds Clear
Dew Point 62 °F
Humidity 97%
Rainfall 0.00 in
Snow Depth Not available.
UV 0 out of 12
Pollen 9.90 out of 12
Air Quality Not available.
Flu Activity Not available.
METAR KALO 310610Z AUTO 00000KT 1 1/2SM BR CLR 16/16 A3000 RMK AO2 T01610156
Pressure 30.00 in
Visibility 1.5 miles
Clouds Clear
Dew Point 62 °F
Humidity 97%
Rainfall 0.00 in
Snow Depth Not available.
UV 0 out of 12
Pollen 9.90 out of 12
Air Quality Not available.
Flu Activity Not available.
METAR KALO 310610Z AUTO 00000KT 1 1/2SM BR CLR 16/16 A3000 RMK AO2 T01610156

10-Day Weather Forecast

×

Almanac

Astronomy

Aug. 31, 2015 Rise Set
Actual Time
Civil Twilight
Nautical Twilight
Astronomical Twilight
Moon
Length of Visible Light
Length of Day
Tomorrow will be .
, % of the Moon is Illuminated

Today's Extremes

State Highs State Lows

Community

WunderPhotos

Upload Photos

1,851,217 photos uploaded!

WunderBlogs® & News

Nearby

Air Quality

  Air Quality AQ Index Pollutant
Not available.

Snow Depth

Station Depth Elevation

Earthquake Activity

City Distance Mag. Time & Date
Minimum magnitude displayed is 2.5.

Coastal Water Temperatures

Place Temperature

Stations

Nearby Weather Stations

Station Location Temp. Windchill Dew Point Humidity Wind Precip. Elev Updated Type
                   
Flood Warning
Statement as of 7:39 PM CDT on August 30, 2015

... Flood Warning now in effect until Monday morning...

The Flood Warning continues for
the Black Hawk creek at Hudson... or from the Black Hawk-Grundy
County line... to the Cedar River in Waterloo.
* Until Monday morning.
* At 5:45 PM Sunday the stage was 14.8 feet... or 0.8 feet above
flood stage.
* Flood stage is 14.0 feet.
* Minor flooding is occurring and is forecast to continue.
* Forecast... rise to 14.9 feet... or 0.9 feet above flood stage... late
this evening. Then begin falling and go below flood stage Monday morning.
* Impact... at 14.5 feet... portions of ranchero Road west of US 63
are flooded.


Lat... Lon 4248 9228 4235 9247 4235 9254 4242 9254
      4253 9238